チタ の空港の天気 - METARとTAF

チタ・カダラ空港 ( UIAA / HTA ) - ロシア チタ
飛行場実況気象(Metar)
観測時間01/20 11:30 YAKT (01/20 02:30 UTC)
風向・風速南西 4m/s
視程10km以上
天気現象
全天の4割程度の雲 雲底高度 1310m
気温-9℃
湿度52%
気圧1014hPa
METARUIAA 200230Z 22004MPS 9999 SCT043 M09/M17 Q1014 R29/410150 NOSIG RMK QFE702/0937
過去の天気等 Google飛行場航空写真 Wunderground天気予報

過去48時間のMETAR

飛行場予報(TAF)
発表時間: 1/20 11:00 YAKT (1/20 02:00 UTC)
予報対象時間: 20日12時 YAKT ~ 21日12時 YAKT
風向・風速南西 5m/s 瞬間風速 10m/s
視程10km以上
全天の4割程度の積乱雲 雲底高度 1220m
20日12時 YAKT ~ 21日9時 YAKT に一時的に
風向・風速西北西 6m/s 瞬間風速 14m/s
TAF UIAA 200200Z 2003/2103 23005G10MPS 9999 SCT040CB
TEMPO 2003/2024 29006G14MPS